Terminal Aerodrome Forecast
Issued by NWS

Home | Current Version | Previous Version | Text Only | Print | Product List | Glossary On
Versions: 1 2 3 4 5 6 7 8 9 10 11 12 13 14 15 16 17
000
FTUS41 KBTV 220500
TAFMSS
TAF
KMSS 220529Z 2206/2306 29012KT P6SM VCSH SCT007 OVC012
      TEMPO 2206/2208 BKN007
     FM221100 27012G20KT P6SM OVC020
     FM221500 28012G20KT P6SM OVC050
     FM230300 24006KT P6SM BKN100=

USA.gov is the U.S. government's official web portal to all federal, state and local government web resources and services.